createdAt,value
2023-01-24T00:01:05.746Z,66.29
2023-01-24T00:03:32.911Z,66.25
2023-01-24T00:06:00.185Z,65.93
2023-01-24T00:08:27.439Z,66.01
2023-01-24T00:11:07.148Z,65.81
2023-01-24T00:13:36.011Z,65.40
2023-01-24T00:16:08.505Z,65.30
2023-01-24T00:18:36.471Z,64.88
2023-01-24T00:21:06.719Z,65.04
2023-01-24T00:23:33.962Z,65.26
2023-01-24T00:26:01.224Z,65.47
2023-01-24T00:28:28.521Z,65.60
2023-01-24T00:30:55.630Z,65.87
2023-01-24T00:33:22.887Z,65.52
2023-01-24T00:35:53.564Z,65.10
2023-01-24T00:38:22.347Z,64.98
2023-01-24T00:40:51.363Z,65.32
2023-01-24T00:43:18.967Z,65.28
2023-01-24T00:45:47.191Z,65.35
2023-01-24T00:48:15.463Z,65.08
2023-01-24T00:50:42.764Z,65.25
2023-01-24T00:53:10.111Z,65.75
2023-01-24T00:55:47.203Z,65.78
2023-01-24T00:58:14.947Z,66.00
2023-01-24T01:00:42.374Z,66.05
2023-01-24T01:03:13.856Z,66.66
2023-01-24T01:05:43.266Z,66.28
2023-01-24T01:08:11.793Z,65.86
2023-01-24T01:10:40.176Z,66.58
2023-01-24T01:13:07.773Z,66.94
2023-01-24T01:15:35.177Z,67.07
2023-01-24T01:18:04.221Z,67.34
2023-01-24T01:20:31.404Z,67.55
2023-01-24T01:22:59.548Z,67.54
2023-01-24T01:25:26.518Z,67.71
2023-01-24T01:27:53.496Z,67.80
2023-01-24T01:30:20.875Z,68.31
2023-01-24T01:32:48.247Z,68.15
2023-01-24T01:35:15.732Z,68.27
2023-01-24T01:37:42.759Z,68.62
2023-01-24T01:40:10.484Z,69.13
2023-01-24T01:42:57.236Z,69.57
2023-01-24T01:46:05.082Z,69.57
2023-01-24T01:48:46.115Z,69.80
2023-01-24T01:51:20.647Z,70.20
2023-01-24T01:53:55.000Z,70.45
2023-01-24T01:56:40.172Z,71.18
2023-01-24T01:59:17.274Z,71.56
2023-01-24T02:01:45.889Z,72.00
2023-01-24T02:04:21.804Z,71.92
2023-01-24T02:07:09.323Z,72.10
2023-01-24T02:09:41.313Z,72.78
2023-01-24T02:12:14.737Z,73.06
2023-01-24T02:15:01.142Z,73.17
2023-01-24T02:17:28.356Z,73.87
2023-01-24T02:20:07.453Z,74.09
2023-01-24T02:22:54.458Z,74.47
2023-01-24T02:25:37.330Z,74.40
2023-01-24T02:28:06.563Z,74.94
2023-01-24T02:30:33.856Z,74.73
2023-01-24T02:33:09.238Z,74.94
2023-01-24T02:35:36.297Z,75.07
2023-01-24T02:38:07.487Z,74.86
2023-01-24T02:40:35.602Z,75.13
2023-01-24T02:43:06.299Z,75.20
2023-01-24T02:45:36.171Z,75.13
2023-01-24T02:48:03.454Z,75.34
2023-01-24T02:50:55.459Z,75.52
2023-01-24T02:53:32.730Z,75.74
2023-01-24T02:56:21.398Z,75.69
2023-01-24T02:58:48.833Z,75.96
2023-01-24T03:01:17.137Z,75.73
2023-01-24T03:03:48.859Z,75.76
2023-01-24T03:06:18.242Z,76.02
2023-01-24T03:08:46.063Z,76.03
2023-01-24T03:11:39.567Z,75.91
2023-01-24T03:14:25.048Z,75.91
2023-01-24T03:17:10.846Z,75.92
2023-01-24T03:19:56.342Z,76.25
2023-01-24T03:22:41.886Z,75.57
2023-01-24T03:25:27.820Z,75.58
2023-01-24T03:28:13.516Z,75.29
2023-01-24T03:30:59.205Z,75.18
2023-01-24T03:33:45.199Z,74.79
2023-01-24T03:36:20.670Z,74.33
2023-01-24T03:39:11.806Z,74.70
2023-01-24T03:41:38.950Z,74.76
2023-01-24T03:44:07.343Z,74.37
2023-01-24T03:46:41.065Z,74.13
2023-01-24T03:49:10.764Z,74.58
2023-01-24T03:51:57.808Z,74.08
2023-01-24T03:54:25.912Z,74.00
2023-01-24T03:56:58.798Z,73.14
2023-01-24T03:59:26.869Z,72.24
2023-01-24T04:01:53.839Z,71.99
2023-01-24T04:04:45.664Z,71.66
2023-01-24T04:07:25.688Z,71.14
2023-01-24T04:09:55.372Z,70.97
2023-01-24T04:12:22.438Z,70.70
2023-01-24T04:14:49.719Z,70.44
2023-01-24T04:17:16.634Z,70.41
2023-01-24T04:19:47.655Z,70.59
2023-01-24T04:22:17.228Z,70.60
2023-01-24T04:24:45.807Z,70.58
2023-01-24T04:27:13.449Z,70.27
2023-01-24T04:30:00.223Z,69.98
2023-01-24T04:32:30.172Z,70.02
2023-01-24T04:35:23.483Z,69.79
2023-01-24T04:38:01.344Z,69.67
2023-01-24T04:41:03.536Z,69.91
2023-01-24T04:43:38.356Z,69.95
2023-01-24T04:46:05.909Z,70.59
2023-01-24T04:48:53.285Z,70.55
2023-01-24T04:51:21.261Z,70.23
2023-01-24T04:53:49.559Z,70.41
2023-01-24T04:56:20.928Z,70.63
2023-01-24T04:58:47.991Z,70.24
2023-01-24T05:01:15.476Z,70.24
2023-01-24T05:04:05.894Z,69.65
2023-01-24T05:06:34.550Z,69.83
2023-01-24T05:09:01.973Z,70.10
2023-01-24T05:11:39.317Z,70.28
2023-01-24T05:14:08.832Z,70.06
2023-01-24T05:16:36.002Z,70.09
2023-01-24T05:19:03.237Z,70.27
2023-01-24T05:21:31.015Z,70.67
2023-01-24T05:23:58.356Z,70.47
2023-01-24T05:26:27.575Z,70.28
2023-01-24T05:28:55.582Z,70.56
2023-01-24T05:31:24.510Z,70.73
2023-01-24T05:33:51.778Z,70.71
2023-01-24T05:36:23.153Z,70.74
2023-01-24T05:38:51.379Z,71.16
2023-01-24T05:41:21.102Z,71.17
2023-01-24T05:43:51.140Z,71.18
2023-01-24T05:46:23.111Z,71.34
2023-01-24T05:49:05.865Z,71.27
2023-01-24T05:51:33.273Z,70.92
2023-01-24T05:54:00.366Z,70.56
2023-01-24T05:56:47.678Z,70.58
2023-01-24T05:59:15.066Z,70.51
2023-01-24T06:01:42.107Z,71.09
2023-01-24T06:04:11.539Z,70.67
2023-01-24T06:06:40.186Z,70.90
2023-01-24T06:09:07.183Z,70.70
2023-01-24T06:11:34.525Z,70.60
2023-01-24T06:14:21.295Z,70.69
2023-01-24T06:16:49.759Z,70.73
2023-01-24T06:19:18.681Z,70.74
2023-01-24T06:21:50.504Z,70.58
2023-01-24T06:24:26.864Z,70.03
2023-01-24T06:27:01.462Z,69.29
2023-01-24T06:29:28.791Z,67.42
2023-01-24T06:32:01.264Z,66.99
2023-01-24T06:34:57.926Z,66.31
2023-01-24T06:37:42.415Z,65.69
2023-01-24T06:40:11.231Z,65.63
2023-01-24T06:42:38.843Z,65.63
2023-01-24T06:45:07.276Z,65.38
2023-01-24T06:47:34.787Z,65.84
2023-01-24T06:50:02.355Z,65.68
2023-01-24T06:52:29.386Z,65.74
2023-01-24T06:54:56.420Z,65.75
2023-01-24T06:57:23.550Z,65.67
2023-01-24T06:59:50.667Z,65.22
2023-01-24T07:02:17.762Z,65.13
2023-01-24T07:04:44.763Z,64.88
2023-01-24T07:07:14.879Z,64.61
2023-01-24T07:09:42.195Z,64.30
2023-01-24T07:12:09.159Z,63.94
2023-01-24T07:14:36.227Z,63.74
2023-01-24T07:17:03.483Z,63.73
2023-01-24T07:19:30.951Z,63.68
2023-01-24T07:21:58.489Z,63.58
2023-01-24T07:24:30.620Z,63.92
2023-01-24T07:27:01.037Z,64.16
2023-01-24T07:29:28.298Z,64.28
2023-01-24T07:31:55.569Z,64.25
2023-01-24T07:34:22.959Z,64.59
2023-01-24T07:36:50.211Z,64.70
2023-01-24T07:39:17.358Z,65.54
2023-01-24T07:41:45.366Z,68.23
2023-01-24T07:44:14.396Z,69.82
2023-01-24T07:46:41.680Z,69.36
2023-01-24T07:49:08.719Z,71.82
2023-01-24T07:51:35.713Z,72.00
2023-01-24T07:54:03.260Z,72.45
2023-01-24T07:56:30.317Z,72.92
2023-01-24T07:58:58.469Z,72.30
2023-01-24T08:01:27.441Z,72.17
2023-01-24T08:03:58.690Z,71.05
2023-01-24T08:06:28.640Z,69.71
2023-01-24T08:08:56.665Z,67.30
2023-01-24T08:11:26.508Z,66.90
2023-01-24T08:13:53.623Z,66.17
2023-01-24T08:16:24.898Z,65.92
2023-01-24T08:18:52.266Z,65.69
2023-01-24T08:21:19.263Z,65.23
2023-01-24T08:23:46.484Z,64.10
2023-01-24T08:26:13.475Z,63.80
2023-01-24T08:28:40.559Z,62.81
2023-01-24T08:31:07.607Z,62.54
2023-01-24T08:33:39.037Z,62.33
2023-01-24T08:36:06.634Z,61.71
2023-01-24T08:38:33.767Z,62.44
2023-01-24T08:41:04.747Z,62.98
2023-01-24T08:43:32.460Z,61.48
2023-01-24T08:45:59.549Z,61.72
2023-01-24T08:48:29.567Z,61.18
2023-01-24T08:50:57.120Z,61.13
2023-01-24T08:53:24.307Z,61.92
2023-01-24T08:55:51.789Z,62.25
2023-01-24T08:58:18.816Z,63.00
2023-01-24T09:00:45.883Z,62.26
2023-01-24T09:03:15.560Z,62.83
2023-01-24T09:05:42.918Z,63.30
2023-01-24T09:08:10.300Z,62.71
2023-01-24T09:10:37.538Z,63.33
2023-01-24T09:13:06.033Z,61.60
2023-01-24T09:15:33.369Z,60.98
2023-01-24T09:18:03.661Z,60.71
2023-01-24T09:20:30.830Z,62.35
2023-01-24T09:22:57.999Z,61.49
2023-01-24T09:25:26.735Z,61.71
2023-01-24T09:27:54.871Z,61.54
2023-01-24T09:30:23.960Z,62.70
2023-01-24T09:32:51.322Z,62.86
2023-01-24T09:35:18.345Z,61.73
2023-01-24T09:37:46.141Z,63.55
2023-01-24T09:40:21.314Z,64.27
2023-01-24T09:43:00.155Z,63.74
2023-01-24T09:45:44.354Z,64.50
2023-01-24T09:48:19.347Z,65.70
2023-01-24T09:50:52.157Z,65.95
2023-01-24T09:53:24.546Z,64.97
2023-01-24T09:55:53.290Z,65.62
2023-01-24T09:58:41.112Z,66.93
2023-01-24T10:01:13.981Z,66.40
2023-01-24T10:03:43.389Z,66.13
2023-01-24T10:06:18.298Z,65.79
2023-01-24T10:09:14.643Z,65.50
2023-01-24T10:11:52.770Z,64.84
2023-01-24T10:14:51.197Z,65.56
2023-01-24T10:17:36.637Z,64.58
2023-01-24T10:20:12.586Z,65.73
2023-01-24T10:22:57.737Z,64.69
2023-01-24T10:25:49.262Z,64.41
2023-01-24T10:28:30.297Z,65.06
2023-01-24T10:31:13.472Z,65.13
2023-01-24T10:33:48.418Z,65.05
2023-01-24T10:36:31.714Z,66.06
2023-01-24T10:38:58.796Z,65.69
2023-01-24T10:41:30.843Z,66.70
2023-01-24T10:44:06.251Z,67.22
2023-01-24T10:46:43.739Z,67.15
2023-01-24T10:49:25.261Z,67.37
2023-01-24T10:52:19.872Z,61.52
2023-01-24T10:54:48.392Z,58.97
2023-01-24T10:57:39.421Z,57.46
2023-01-24T11:00:28.267Z,55.91
2023-01-24T11:02:58.517Z,56.61
2023-01-24T11:05:35.968Z,56.27
2023-01-24T11:08:05.575Z,56.17
2023-01-24T11:10:43.064Z,55.31
2023-01-24T11:13:40.710Z,54.55
2023-01-24T11:16:08.033Z,55.44
2023-01-24T11:18:35.683Z,55.23
2023-01-24T11:21:08.618Z,55.36
2023-01-24T11:23:35.894Z,54.68
2023-01-24T11:26:05.406Z,55.49
2023-01-24T11:28:37.767Z,54.32
2023-01-24T11:31:20.977Z,56.00
2023-01-24T11:34:14.067Z,56.01
2023-01-24T11:37:02.744Z,56.99
2023-01-24T11:39:44.413Z,56.96
2023-01-24T11:42:37.856Z,56.26
2023-01-24T11:45:16.166Z,57.62
2023-01-24T11:48:10.062Z,57.06
2023-01-24T11:51:13.201Z,57.54
2023-01-24T11:54:15.994Z,57.11
2023-01-24T11:56:52.373Z,58.00
2023-01-24T11:59:49.895Z,57.40
2023-01-24T12:02:33.599Z,57.50
2023-01-24T12:05:25.178Z,57.32
2023-01-24T12:08:22.699Z,58.85
2023-01-24T12:11:34.770Z,59.01
2023-01-24T12:14:24.024Z,58.93
2023-01-24T12:17:23.762Z,59.79
2023-01-24T12:20:29.798Z,60.16
2023-01-24T12:23:04.070Z,59.85
2023-01-24T12:25:38.316Z,59.76
2023-01-24T12:28:20.762Z,60.29
2023-01-24T12:30:57.292Z,60.04
2023-01-24T12:33:46.811Z,60.06
2023-01-24T12:36:24.903Z,59.12
2023-01-24T12:38:56.654Z,57.45
2023-01-24T12:41:37.170Z,57.25
2023-01-24T12:44:22.733Z,56.87
2023-01-24T12:47:16.217Z,57.18
2023-01-24T12:49:52.355Z,55.87
2023-01-24T12:52:28.890Z,55.72
2023-01-24T12:55:21.280Z,56.00
2023-01-24T12:58:03.649Z,57.32
2023-01-24T13:00:46.542Z,57.67
2023-01-24T13:03:27.144Z,59.19
2023-01-24T13:06:10.838Z,59.29
2023-01-24T13:08:59.055Z,59.99
2023-01-24T13:11:30.648Z,60.75
2023-01-24T13:14:26.816Z,60.61
2023-01-24T13:16:56.863Z,61.52
2023-01-24T13:19:51.266Z,62.42
2023-01-24T13:22:33.283Z,63.67
2023-01-24T13:25:18.384Z,65.07
2023-01-24T13:27:57.832Z,65.57
2023-01-24T13:30:59.021Z,66.68
2023-01-24T13:33:42.229Z,68.17
2023-01-24T13:36:10.044Z,69.85
2023-01-24T13:38:45.627Z,71.29
2023-01-24T13:41:27.075Z,71.69
2023-01-24T13:44:05.185Z,71.09
2023-01-24T13:46:44.731Z,72.90
2023-01-24T13:49:29.928Z,74.43
2023-01-24T13:51:58.148Z,76.44
2023-01-24T13:54:44.342Z,78.57
2023-01-24T13:57:14.329Z,77.79
2023-01-24T13:59:43.630Z,77.77
2023-01-24T14:02:31.100Z,79.10
2023-01-24T14:04:58.908Z,82.67
2023-01-24T14:07:39.483Z,87.41
2023-01-24T14:10:10.221Z,89.79
2023-01-24T14:12:40.222Z,90.38
2023-01-24T14:15:10.388Z,92.38
2023-01-24T14:17:37.501Z,91.19
2023-01-24T14:20:05.337Z,91.07
2023-01-24T14:22:38.961Z,90.44
2023-01-24T14:25:35.666Z,88.33
2023-01-24T14:28:14.564Z,87.25
2023-01-24T14:30:58.350Z,85.81
2023-01-24T14:33:40.246Z,85.69
2023-01-24T14:36:25.667Z,87.65
2023-01-24T14:39:29.647Z,85.73
2023-01-24T14:42:02.697Z,86.06
2023-01-24T14:44:32.554Z,85.33
2023-01-24T14:47:05.897Z,86.14
2023-01-24T14:49:50.840Z,85.40
2023-01-24T14:52:25.392Z,85.02
2023-01-24T14:54:55.058Z,85.90
2023-01-24T14:57:31.031Z,87.61
2023-01-24T15:00:09.087Z,85.47
2023-01-24T15:02:37.401Z,83.76
2023-01-24T15:05:22.482Z,81.86
2023-01-24T15:07:49.591Z,83.04
2023-01-24T15:10:17.003Z,83.41
2023-01-24T15:12:44.138Z,81.81
2023-01-24T15:15:19.395Z,82.21
2023-01-24T15:17:49.285Z,82.14
2023-01-24T15:20:25.241Z,80.11
2023-01-24T15:22:57.834Z,79.38
2023-01-24T15:25:33.718Z,78.44
2023-01-24T15:28:32.182Z,78.19
2023-01-24T15:31:01.720Z,77.26
2023-01-24T15:33:43.299Z,77.01
2023-01-24T15:36:28.759Z,77.80
2023-01-24T15:38:58.182Z,77.11
2023-01-24T15:41:46.786Z,78.15
2023-01-24T15:44:15.118Z,77.35
2023-01-24T15:47:03.117Z,76.58
2023-01-24T15:49:34.883Z,76.50
2023-01-24T15:52:02.680Z,76.65
2023-01-24T15:54:30.098Z,76.36
2023-01-24T15:57:01.878Z,76.83
2023-01-24T15:59:30.499Z,77.22
2023-01-24T16:01:57.707Z,75.99
2023-01-24T16:04:25.285Z,74.60
2023-01-24T16:06:52.277Z,74.83
2023-01-24T16:09:19.662Z,76.17
2023-01-24T16:11:49.598Z,76.44
2023-01-24T16:14:27.082Z,75.16
2023-01-24T16:16:58.334Z,76.39
2023-01-24T16:19:25.385Z,75.75
2023-01-24T16:21:53.403Z,75.11
2023-01-24T16:24:20.576Z,74.61
2023-01-24T16:26:53.069Z,74.50
2023-01-24T16:29:25.930Z,75.26
2023-01-24T16:31:53.205Z,75.44
2023-01-24T16:34:20.327Z,74.75
2023-01-24T16:36:47.553Z,73.09
2023-01-24T16:39:19.407Z,73.83
2023-01-24T16:41:47.976Z,74.05
2023-01-24T16:44:15.743Z,74.01
2023-01-24T16:46:50.123Z,72.45
2023-01-24T16:49:17.972Z,71.82
2023-01-24T16:51:46.459Z,70.21
2023-01-24T16:54:14.833Z,70.70
2023-01-24T16:56:43.636Z,70.93
2023-01-24T16:59:10.930Z,71.37
2023-01-24T17:01:38.042Z,69.71
2023-01-24T17:04:05.453Z,69.67
2023-01-24T17:06:33.086Z,70.06
2023-01-24T17:09:00.303Z,69.94
2023-01-24T17:11:27.575Z,70.54
2023-01-24T17:13:54.563Z,68.46
2023-01-24T17:16:21.666Z,68.85
2023-01-24T17:18:48.827Z,69.35
2023-01-24T17:21:17.166Z,68.61
2023-01-24T17:23:44.796Z,68.31
2023-01-24T17:26:15.163Z,68.48
2023-01-24T17:28:44.311Z,68.84
2023-01-24T17:31:13.721Z,67.29
2023-01-24T17:33:41.924Z,67.71
2023-01-24T17:36:09.950Z,68.69
2023-01-24T17:38:37.189Z,68.66
2023-01-24T17:41:04.472Z,69.64
2023-01-24T17:43:40.948Z,67.91
2023-01-24T17:46:18.450Z,68.21
2023-01-24T17:48:45.612Z,66.75
2023-01-24T17:51:18.727Z,67.35
2023-01-24T17:53:46.853Z,66.41
2023-01-24T17:56:15.205Z,67.74
2023-01-24T17:58:42.493Z,68.48
2023-01-24T18:01:09.496Z,67.21
2023-01-24T18:03:37.337Z,66.05
2023-01-24T18:06:06.139Z,67.88
2023-01-24T18:08:33.148Z,72.46
2023-01-24T18:11:08.626Z,73.60
2023-01-24T18:13:36.795Z,78.88
2023-01-24T18:16:06.011Z,84.93
2023-01-24T18:18:33.188Z,87.30
2023-01-24T18:21:00.185Z,91.36
2023-01-24T18:23:27.931Z,90.89
2023-01-24T18:26:01.168Z,92.93
2023-01-24T18:28:28.265Z,93.67
2023-01-24T18:30:55.551Z,98.44
2023-01-24T18:33:22.617Z,98.35
2023-01-24T18:35:49.838Z,99.28
2023-01-24T18:38:16.919Z,100.00
2023-01-24T18:40:44.098Z,100.00
2023-01-24T18:43:12.219Z,100.00
2023-01-24T18:45:39.328Z,100.00
2023-01-24T18:48:06.486Z,100.00
2023-01-24T18:50:33.647Z,100.00
2023-01-24T18:53:00.788Z,100.00
2023-01-24T18:55:27.731Z,100.00
2023-01-24T18:57:54.901Z,100.00
2023-01-24T19:00:23.040Z,100.00
2023-01-24T19:02:50.042Z,97.07
2023-01-24T19:05:17.209Z,97.59
2023-01-24T19:07:45.807Z,97.75
2023-01-24T19:10:13.839Z,98.36
2023-01-24T19:12:41.081Z,99.14
2023-01-24T19:15:08.785Z,99.56
2023-01-24T19:17:35.878Z,99.47
2023-01-24T19:20:02.983Z,99.37
2023-01-24T19:22:30.044Z,98.68
2023-01-24T19:24:57.120Z,98.13
2023-01-24T19:27:24.231Z,98.35
2023-01-24T19:29:51.379Z,97.73
2023-01-24T19:32:18.331Z,97.49
2023-01-24T19:34:45.425Z,97.02
2023-01-24T19:37:13.161Z,97.46
2023-01-24T19:39:40.197Z,97.13
2023-01-24T19:42:07.782Z,99.49
2023-01-24T19:44:34.967Z,100.00
2023-01-24T19:47:02.017Z,100.00
2023-01-24T19:49:29.164Z,99.90
2023-01-24T19:51:56.427Z,100.00
2023-01-24T19:54:23.706Z,100.00
2023-01-24T19:56:55.024Z,100.00
2023-01-24T19:59:23.411Z,100.00
2023-01-24T20:01:51.528Z,100.00
2023-01-24T20:04:24.535Z,96.55
2023-01-24T20:06:54.256Z,92.95
2023-01-24T20:09:21.935Z,88.35
2023-01-24T20:11:50.848Z,85.03
2023-01-24T20:14:18.067Z,86.10
2023-01-24T20:16:47.103Z,88.77
2023-01-24T20:19:27.135Z,95.88
2023-01-24T20:21:55.661Z,99.01
2023-01-24T20:24:23.089Z,100.00
2023-01-24T20:26:51.983Z,100.00
2023-01-24T20:29:19.220Z,100.00
2023-01-24T20:31:47.043Z,99.50
2023-01-24T20:34:17.727Z,97.88
2023-01-24T20:36:47.122Z,100.00
2023-01-24T20:39:14.261Z,100.00
2023-01-24T20:41:43.905Z,100.00
2023-01-24T20:44:26.101Z,100.00
2023-01-24T20:46:54.747Z,100.00
2023-01-24T20:49:22.192Z,100.00
2023-01-24T20:51:49.582Z,100.00
2023-01-24T20:54:17.245Z,100.00
2023-01-24T20:56:47.832Z,100.00
2023-01-24T20:59:16.436Z,100.00
2023-01-24T21:01:43.869Z,100.00
2023-01-24T21:04:11.691Z,100.00
2023-01-24T21:06:41.726Z,100.00
2023-01-24T21:09:10.288Z,100.00
2023-01-24T21:11:38.459Z,100.00
2023-01-24T21:14:08.426Z,100.00
2023-01-24T21:16:36.864Z,100.00
2023-01-24T21:19:06.975Z,100.00
2023-01-24T21:21:36.754Z,100.00
2023-01-24T21:24:11.459Z,100.00
2023-01-24T21:26:40.787Z,100.00
2023-01-24T21:29:08.346Z,100.00
2023-01-24T21:31:35.979Z,100.00
2023-01-24T21:34:03.536Z,100.00
2023-01-24T21:36:33.469Z,100.00
2023-01-24T21:39:03.757Z,100.00
2023-01-24T21:41:50.370Z,100.00
2023-01-24T21:44:18.429Z,100.00
2023-01-24T21:46:45.878Z,100.00
2023-01-24T21:49:13.258Z,100.00
2023-01-24T21:51:50.279Z,100.00
2023-01-24T21:54:26.766Z,100.00
2023-01-24T21:57:31.881Z,100.00
2023-01-24T22:00:02.287Z,97.37
2023-01-24T22:02:39.234Z,96.89
2023-01-24T22:05:07.194Z,97.70
2023-01-24T22:07:34.814Z,95.86
2023-01-24T22:10:02.372Z,92.13
2023-01-24T22:12:30.376Z,94.08
2023-01-24T22:14:59.210Z,95.89
2023-01-24T22:17:26.629Z,93.30
2023-01-24T22:19:56.253Z,92.56
2023-01-24T22:22:32.513Z,95.07
2023-01-24T22:25:17.538Z,98.22
2023-01-24T22:27:46.412Z,99.29
2023-01-24T22:30:23.792Z,97.57
2023-01-24T22:32:52.020Z,97.79
2023-01-24T22:35:24.936Z,97.23
2023-01-24T22:38:03.074Z,100.00
2023-01-24T22:40:30.406Z,99.04
2023-01-24T22:42:58.819Z,100.00
2023-01-24T22:45:28.111Z,97.24
2023-01-24T22:47:56.131Z,95.90
2023-01-24T22:50:23.902Z,96.23
2023-01-24T22:52:51.530Z,91.03
2023-01-24T22:55:19.008Z,91.20
2023-01-24T22:57:46.257Z,91.18
2023-01-24T23:00:14.031Z,92.15
2023-01-24T23:02:41.203Z,92.11
2023-01-24T23:05:09.083Z,91.45
2023-01-24T23:07:36.441Z,90.71
2023-01-24T23:10:03.864Z,91.46
2023-01-24T23:12:49.289Z,91.90
2023-01-24T23:15:35.229Z,95.08
2023-01-24T23:18:04.380Z,97.21
2023-01-24T23:20:50.109Z,98.35
2023-01-24T23:23:17.200Z,98.67
2023-01-24T23:25:44.157Z,99.90
2023-01-24T23:28:11.300Z,100.00
2023-01-24T23:30:48.814Z,100.00
2023-01-24T23:33:29.993Z,100.00
2023-01-24T23:35:57.807Z,100.00
2023-01-24T23:38:24.995Z,97.47
2023-01-24T23:40:52.152Z,98.13
2023-01-24T23:43:19.408Z,98.90
2023-01-24T23:45:46.487Z,99.19
2023-01-24T23:48:13.807Z,98.71
2023-01-24T23:50:40.816Z,99.17
2023-01-24T23:53:08.093Z,99.55
2023-01-24T23:55:35.229Z,99.85
2023-01-24T23:58:03.708Z,99.87
